sensor_id;sensor_type;location;lat;lon;timestamp;temperature;humidity
40808;DHT22;26523;52.504;13.498;2022-11-20T00:01:47;0.50;99.90
40808;DHT22;26523;52.504;13.498;2022-11-20T00:04:13;0.50;99.90
40808;DHT22;26523;52.504;13.498;2022-11-20T00:06:39;0.50;99.90
40808;DHT22;26523;52.504;13.498;2022-11-20T00:09:05;0.50;99.90
40808;DHT22;26523;52.504;13.498;2022-11-20T00:11:31;0.50;99.90
40808;DHT22;26523;52.504;13.498;2022-11-20T00:14:00;0.50;99.90
40808;DHT22;26523;52.504;13.498;2022-11-20T00:16:28;0.50;99.90
40808;DHT22;26523;52.504;13.498;2022-11-20T00:18:54;0.50;99.90
40808;DHT22;26523;52.504;13.498;2022-11-20T00:21:23;0.50;99.90
40808;DHT22;26523;52.504;13.498;2022-11-20T00:23:50;0.50;99.90
40808;DHT22;26523;52.504;13.498;2022-11-20T00:26:17;0.50;99.90
40808;DHT22;26523;52.504;13.498;2022-11-20T00:28:48;0.50;99.90
40808;DHT22;26523;52.504;13.498;2022-11-20T00:31:15;0.40;99.90
40808;DHT22;26523;52.504;13.498;2022-11-20T00:33:41;0.40;99.90
40808;DHT22;26523;52.504;13.498;2022-11-20T00:36:10;0.40;99.90
40808;DHT22;26523;52.504;13.498;2022-11-20T00:38:36;0.50;99.90
40808;DHT22;26523;52.504;13.498;2022-11-20T00:41:06;0.50;99.90
40808;DHT22;26523;52.504;13.498;2022-11-20T00:43:32;0.50;99.90
40808;DHT22;26523;52.504;13.498;2022-11-20T00:46:07;0.40;99.90
40808;DHT22;26523;52.504;13.498;2022-11-20T00:48:33;0.40;99.90
40808;DHT22;26523;52.504;13.498;2022-11-20T00:50:59;0.30;99.90
40808;DHT22;26523;52.504;13.498;2022-11-20T00:53:25;0.40;99.90
40808;DHT22;26523;52.504;13.498;2022-11-20T00:56:04;0.40;99.90
40808;DHT22;26523;52.504;13.498;2022-11-20T00:58:39;0.40;99.90
40808;DHT22;26523;52.504;13.498;2022-11-20T01:01:10;0.50;99.90
40808;DHT22;26523;52.504;13.498;2022-11-20T01:03:38;0.40;99.90
40808;DHT22;26523;52.504;13.498;2022-11-20T01:06:06;0.40;99.90
40808;DHT22;26523;52.504;13.498;2022-11-20T01:08:33;0.40;99.90
40808;DHT22;26523;52.504;13.498;2022-11-20T01:11:04;0.40;99.90
40808;DHT22;26523;52.504;13.498;2022-11-20T01:13:31;0.40;99.90
40808;DHT22;26523;52.504;13.498;2022-11-20T01:16:14;0.40;99.90
40808;DHT22;26523;52.504;13.498;2022-11-20T01:18:42;0.40;99.90
40808;DHT22;26523;52.504;13.498;2022-11-20T01:21:10;0.40;99.90
40808;DHT22;26523;52.504;13.498;2022-11-20T01:23:38;0.40;99.90
40808;DHT22;26523;52.504;13.498;2022-11-20T01:26:07;0.40;99.90
40808;DHT22;26523;52.504;13.498;2022-11-20T01:28:33;0.40;99.90
40808;DHT22;26523;52.504;13.498;2022-11-20T01:31:00;0.30;99.90
40808;DHT22;26523;52.504;13.498;2022-11-20T01:33:26;0.30;99.90
40808;DHT22;26523;52.504;13.498;2022-11-20T01:35:52;0.30;99.90
40808;DHT22;26523;52.504;13.498;2022-11-20T01:38:18;0.40;99.90
40808;DHT22;26523;52.504;13.498;2022-11-20T01:40:45;0.30;99.90
40808;DHT22;26523;52.504;13.498;2022-11-20T01:43:19;0.30;99.90
40808;DHT22;26523;52.504;13.498;2022-11-20T01:48:31;0.30;99.90
40808;DHT22;26523;52.504;13.498;2022-11-20T01:50:58;0.40;99.90
40808;DHT22;26523;52.504;13.498;2022-11-20T01:53:29;0.40;99.90
40808;DHT22;26523;52.504;13.498;2022-11-20T01:55:57;0.30;99.90
40808;DHT22;26523;52.504;13.498;2022-11-20T01:58:28;0.40;99.90
40808;DHT22;26523;52.504;13.498;2022-11-20T02:00:55;0.40;99.90
40808;DHT22;26523;52.504;13.498;2022-11-20T02:03:21;0.30;99.90
40808;DHT22;26523;52.504;13.498;2022-11-20T02:06:04;0.40;99.90
40808;DHT22;26523;52.504;13.498;2022-11-20T02:08:32;0.40;99.90
40808;DHT22;26523;52.504;13.498;2022-11-20T02:10:59;0.40;99.90
40808;DHT22;26523;52.504;13.498;2022-11-20T02:13:24;0.40;99.90
40808;DHT22;26523;52.504;13.498;2022-11-20T02:16:18;0.40;99.90
40808;DHT22;26523;52.504;13.498;2022-11-20T02:18:46;0.40;99.90
40808;DHT22;26523;52.504;13.498;2022-11-20T02:24:06;0.40;99.90
40808;DHT22;26523;52.504;13.498;2022-11-20T02:27:02;0.30;99.90
40808;DHT22;26523;52.504;13.498;2022-11-20T02:30:11;0.30;99.90
40808;DHT22;26523;52.504;13.498;2022-11-20T02:32:35;0.30;99.90
40808;DHT22;26523;52.504;13.498;2022-11-20T02:37:43;0.30;99.90
40808;DHT22;26523;52.504;13.498;2022-11-20T02:40:11;0.30;99.90
40808;DHT22;26523;52.504;13.498;2022-11-20T02:42:37;0.30;99.90
40808;DHT22;26523;52.504;13.498;2022-11-20T02:45:04;0.30;99.90
40808;DHT22;26523;52.504;13.498;2022-11-20T02:47:30;0.20;99.90
40808;DHT22;26523;52.504;13.498;2022-11-20T02:49:56;0.20;99.90
40808;DHT22;26523;52.504;13.498;2022-11-20T02:52:22;0.20;99.90
40808;DHT22;26523;52.504;13.498;2022-11-20T02:54:47;0.30;99.90
40808;DHT22;26523;52.504;13.498;2022-11-20T02:57:13;0.30;99.90
40808;DHT22;26523;52.504;13.498;2022-11-20T02:59:39;0.20;99.90
40808;DHT22;26523;52.504;13.498;2022-11-20T03:02:04;0.20;99.90
40808;DHT22;26523;52.504;13.498;2022-11-20T03:04:30;0.10;99.90
40808;DHT22;26523;52.504;13.498;2022-11-20T03:06:56;0.10;99.90
40808;DHT22;26523;52.504;13.498;2022-11-20T03:09:22;0.10;99.90
40808;DHT22;26523;52.504;13.498;2022-11-20T03:11:47;0.20;99.90
40808;DHT22;26523;52.504;13.498;2022-11-20T03:14:13;0.30;99.90
40808;DHT22;26523;52.504;13.498;2022-11-20T03:16:39;0.20;99.90
40808;DHT22;26523;52.504;13.498;2022-11-20T03:19:05;0.20;99.90
40808;DHT22;26523;52.504;13.498;2022-11-20T03:21:33;0.30;99.90
40808;DHT22;26523;52.504;13.498;2022-11-20T03:23:59;0.20;99.90
40808;DHT22;26523;52.504;13.498;2022-11-20T03:26:25;0.20;99.90
40808;DHT22;26523;52.504;13.498;2022-11-20T03:28:56;0.10;99.90
40808;DHT22;26523;52.504;13.498;2022-11-20T03:31:27;0.10;99.90
40808;DHT22;26523;52.504;13.498;2022-11-20T03:33:53;0.10;99.90
40808;DHT22;26523;52.504;13.498;2022-11-20T03:36:20;0.10;99.90
40808;DHT22;26523;52.504;13.498;2022-11-20T03:38:47;0.00;99.90
40808;DHT22;26523;52.504;13.498;2022-11-20T03:41:20;0.00;99.90
40808;DHT22;26523;52.504;13.498;2022-11-20T03:43:57;0.00;99.90
40808;DHT22;26523;52.504;13.498;2022-11-20T03:46:24;0.00;99.90
40808;DHT22;26523;52.504;13.498;2022-11-20T03:48:50;-0.10;99.90
40808;DHT22;26523;52.504;13.498;2022-11-20T03:51:20;-0.10;99.90
40808;DHT22;26523;52.504;13.498;2022-11-20T03:53:47;-0.20;99.90
40808;DHT22;26523;52.504;13.498;2022-11-20T03:56:16;-0.10;99.90
40808;DHT22;26523;52.504;13.498;2022-11-20T03:58:42;0.00;99.90
40808;DHT22;26523;52.504;13.498;2022-11-20T04:01:13;0.00;99.90
40808;DHT22;26523;52.504;13.498;2022-11-20T04:03:40;0.00;99.90
40808;DHT22;26523;52.504;13.498;2022-11-20T04:06:09;0.00;99.90
40808;DHT22;26523;52.504;13.498;2022-11-20T04:08:35;0.00;99.90
40808;DHT22;26523;52.504;13.498;2022-11-20T04:13:39;0.00;99.90
40808;DHT22;26523;52.504;13.498;2022-11-20T04:16:08;0.00;99.90
40808;DHT22;26523;52.504;13.498;2022-11-20T04:18:35;0.00;99.90
40808;DHT22;26523;52.504;13.498;2022-11-20T04:21:02;0.00;99.90
40808;DHT22;26523;52.504;13.498;2022-11-20T04:23:28;0.00;99.90
40808;DHT22;26523;52.504;13.498;2022-11-20T04:25:54;0.00;99.90
40808;DHT22;26523;52.504;13.498;2022-11-20T04:28:20;0.00;99.90
40808;DHT22;26523;52.504;13.498;2022-11-20T04:30:46;0.00;99.90
40808;DHT22;26523;52.504;13.498;2022-11-20T04:33:11;-0.10;99.90
40808;DHT22;26523;52.504;13.498;2022-11-20T04:35:37;-0.10;99.90
40808;DHT22;26523;52.504;13.498;2022-11-20T04:38:03;-0.10;99.90
40808;DHT22;26523;52.504;13.498;2022-11-20T04:40:30;-0.20;99.90
40808;DHT22;26523;52.504;13.498;2022-11-20T04:42:56;-0.20;99.90
40808;DHT22;26523;52.504;13.498;2022-11-20T04:45:23;-0.20;99.90
40808;DHT22;26523;52.504;13.498;2022-11-20T04:47:49;-0.20;99.90
40808;DHT22;26523;52.504;13.498;2022-11-20T04:50:14;-0.30;99.90
40808;DHT22;26523;52.504;13.498;2022-11-20T04:52:40;-0.30;99.90
40808;DHT22;26523;52.504;13.498;2022-11-20T04:55:06;-0.30;99.90
40808;DHT22;26523;52.504;13.498;2022-11-20T04:57:32;-0.30;99.90
40808;DHT22;26523;52.504;13.498;2022-11-20T04:59:58;-0.40;99.90
40808;DHT22;26523;52.504;13.498;2022-11-20T05:02:23;-0.40;99.90
40808;DHT22;26523;52.504;13.498;2022-11-20T05:04:49;-0.40;99.90
40808;DHT22;26523;52.504;13.498;2022-11-20T05:07:15;-0.50;99.90
40808;DHT22;26523;52.504;13.498;2022-11-20T05:09:40;-0.50;99.90
40808;DHT22;26523;52.504;13.498;2022-11-20T05:12:08;-0.50;99.90
40808;DHT22;26523;52.504;13.498;2022-11-20T05:14:34;-0.50;99.90
40808;DHT22;26523;52.504;13.498;2022-11-20T05:16:59;-0.40;99.90
40808;DHT22;26523;52.504;13.498;2022-11-20T05:19:25;-0.40;99.90
40808;DHT22;26523;52.504;13.498;2022-11-20T05:21:50;-0.40;99.90
40808;DHT22;26523;52.504;13.498;2022-11-20T05:24:16;-0.50;99.90
40808;DHT22;26523;52.504;13.498;2022-11-20T05:26:42;-0.40;99.90
40808;DHT22;26523;52.504;13.498;2022-11-20T05:29:10;-0.40;99.90
40808;DHT22;26523;52.504;13.498;2022-11-20T05:31:36;-0.40;99.90
40808;DHT22;26523;52.504;13.498;2022-11-20T05:34:02;-0.40;99.90
40808;DHT22;26523;52.504;13.498;2022-11-20T05:36:28;-0.40;99.90
40808;DHT22;26523;52.504;13.498;2022-11-20T05:38:55;-0.50;99.90
40808;DHT22;26523;52.504;13.498;2022-11-20T05:41:20;-0.40;99.90
40808;DHT22;26523;52.504;13.498;2022-11-20T05:43:47;-0.40;99.90
40808;DHT22;26523;52.504;13.498;2022-11-20T05:46:15;-0.30;99.90
40808;DHT22;26523;52.504;13.498;2022-11-20T05:48:42;-0.40;99.90
40808;DHT22;26523;52.504;13.498;2022-11-20T05:51:10;-0.30;99.90
40808;DHT22;26523;52.504;13.498;2022-11-20T05:53:36;-0.30;99.90
40808;DHT22;26523;52.504;13.498;2022-11-20T05:56:05;-0.40;99.90
40808;DHT22;26523;52.504;13.498;2022-11-20T05:58:31;-0.30;99.90
40808;DHT22;26523;52.504;13.498;2022-11-20T06:01:13;-0.30;99.90
40808;DHT22;26523;52.504;13.498;2022-11-20T06:03:39;-0.30;99.90
40808;DHT22;26523;52.504;13.498;2022-11-20T06:06:06;-0.30;99.90
40808;DHT22;26523;52.504;13.498;2022-11-20T06:08:32;-0.30;99.90
40808;DHT22;26523;52.504;13.498;2022-11-20T06:10:58;-0.30;99.90
40808;DHT22;26523;52.504;13.498;2022-11-20T06:13:24;-0.20;99.90
40808;DHT22;26523;52.504;13.498;2022-11-20T06:15:53;-0.20;99.90
40808;DHT22;26523;52.504;13.498;2022-11-20T06:18:19;-0.10;99.90
40808;DHT22;26523;52.504;13.498;2022-11-20T06:20:45;-0.10;99.90
40808;DHT22;26523;52.504;13.498;2022-11-20T06:23:11;-0.10;99.90
40808;DHT22;26523;52.504;13.498;2022-11-20T06:25:39;-0.10;99.90
40808;DHT22;26523;52.504;13.498;2022-11-20T06:28:05;-0.10;99.90
40808;DHT22;26523;52.504;13.498;2022-11-20T06:30:31;-0.10;99.90
40808;DHT22;26523;52.504;13.498;2022-11-20T06:32:56;-0.10;99.90
40808;DHT22;26523;52.504;13.498;2022-11-20T06:35:22;-0.20;99.90
40808;DHT22;26523;52.504;13.498;2022-11-20T06:37:48;-0.10;99.90
40808;DHT22;26523;52.504;13.498;2022-11-20T06:40:13;-0.20;99.90
40808;DHT22;26523;52.504;13.498;2022-11-20T06:42:39;-0.20;99.90
40808;DHT22;26523;52.504;13.498;2022-11-20T06:45:05;-0.10;99.90
40808;DHT22;26523;52.504;13.498;2022-11-20T06:47:31;-0.10;99.90
40808;DHT22;26523;52.504;13.498;2022-11-20T06:49:56;-0.10;99.90
40808;DHT22;26523;52.504;13.498;2022-11-20T06:52:22;-0.10;99.90
40808;DHT22;26523;52.504;13.498;2022-11-20T06:54:47;-0.10;99.90
40808;DHT22;26523;52.504;13.498;2022-11-20T06:57:13;-0.10;99.90
40808;DHT22;26523;52.504;13.498;2022-11-20T06:59:39;-0.10;99.90
40808;DHT22;26523;52.504;13.498;2022-11-20T07:02:05;-0.10;99.90
40808;DHT22;26523;52.504;13.498;2022-11-20T07:04:30;-0.10;99.90
40808;DHT22;26523;52.504;13.498;2022-11-20T07:06:56;0.00;99.90
40808;DHT22;26523;52.504;13.498;2022-11-20T07:09:21;0.00;99.90
40808;DHT22;26523;52.504;13.498;2022-11-20T07:11:47;0.00;99.90
40808;DHT22;26523;52.504;13.498;2022-11-20T07:14:13;0.00;99.90
40808;DHT22;26523;52.504;13.498;2022-11-20T07:16:38;0.10;99.90
40808;DHT22;26523;52.504;13.498;2022-11-20T07:19:04;0.10;99.90
40808;DHT22;26523;52.504;13.498;2022-11-20T07:21:30;0.20;99.90
40808;DHT22;26523;52.504;13.498;2022-11-20T07:23:55;0.20;99.90
40808;DHT22;26523;52.504;13.498;2022-11-20T07:26:21;0.20;99.90
40808;DHT22;26523;52.504;13.498;2022-11-20T07:28:46;0.20;99.90
40808;DHT22;26523;52.504;13.498;2022-11-20T07:31:12;0.20;99.90
40808;DHT22;26523;52.504;13.498;2022-11-20T07:33:38;0.20;99.90
40808;DHT22;26523;52.504;13.498;2022-11-20T07:36:04;0.20;99.90
40808;DHT22;26523;52.504;13.498;2022-11-20T07:38:30;0.30;99.90
40808;DHT22;26523;52.504;13.498;2022-11-20T07:40:56;0.30;99.90
40808;DHT22;26523;52.504;13.498;2022-11-20T07:43:23;0.30;99.90
40808;DHT22;26523;52.504;13.498;2022-11-20T07:45:49;0.30;99.90
40808;DHT22;26523;52.504;13.498;2022-11-20T07:48:15;0.30;99.90
40808;DHT22;26523;52.504;13.498;2022-11-20T07:50:41;0.30;99.90
40808;DHT22;26523;52.504;13.498;2022-11-20T07:53:06;0.40;99.90
40808;DHT22;26523;52.504;13.498;2022-11-20T07:55:32;0.40;99.90
40808;DHT22;26523;52.504;13.498;2022-11-20T07:57:58;0.50;99.90
40808;DHT22;26523;52.504;13.498;2022-11-20T08:00:25;0.50;99.90
40808;DHT22;26523;52.504;13.498;2022-11-20T08:02:51;0.50;99.90
40808;DHT22;26523;52.504;13.498;2022-11-20T08:05:17;0.50;99.90
40808;DHT22;26523;52.504;13.498;2022-11-20T08:07:43;0.60;99.90
40808;DHT22;26523;52.504;13.498;2022-11-20T08:10:12;0.50;99.90
40808;DHT22;26523;52.504;13.498;2022-11-20T08:12:51;0.50;99.90
40808;DHT22;26523;52.504;13.498;2022-11-20T08:15:38;0.50;99.90
40808;DHT22;26523;52.504;13.498;2022-11-20T08:18:09;0.50;99.90
40808;DHT22;26523;52.504;13.498;2022-11-20T08:20:36;0.50;99.90
40808;DHT22;26523;52.504;13.498;2022-11-20T08:23:04;0.60;99.90
40808;DHT22;26523;52.504;13.498;2022-11-20T08:25:31;0.60;99.90
40808;DHT22;26523;52.504;13.498;2022-11-20T08:28:03;0.60;99.90
40808;DHT22;26523;52.504;13.498;2022-11-20T08:30:29;0.60;99.90
40808;DHT22;26523;52.504;13.498;2022-11-20T08:32:56;0.70;99.90
40808;DHT22;26523;52.504;13.498;2022-11-20T08:35:26;0.80;99.90
40808;DHT22;26523;52.504;13.498;2022-11-20T08:37:52;0.80;99.90
40808;DHT22;26523;52.504;13.498;2022-11-20T08:40:17;0.80;99.90
40808;DHT22;26523;52.504;13.498;2022-11-20T08:42:50;0.90;99.90
40808;DHT22;26523;52.504;13.498;2022-11-20T08:45:17;1.00;99.90
40808;DHT22;26523;52.504;13.498;2022-11-20T08:47:44;1.00;99.90
40808;DHT22;26523;52.504;13.498;2022-11-20T08:50:11;1.00;99.90
40808;DHT22;26523;52.504;13.498;2022-11-20T08:52:37;0.90;99.90
40808;DHT22;26523;52.504;13.498;2022-11-20T08:55:03;0.90;99.90
40808;DHT22;26523;52.504;13.498;2022-11-20T08:57:34;0.90;99.90
40808;DHT22;26523;52.504;13.498;2022-11-20T09:00:00;0.90;99.90
40808;DHT22;26523;52.504;13.498;2022-11-20T09:02:26;1.00;99.90
40808;DHT22;26523;52.504;13.498;2022-11-20T09:04:52;1.00;99.90
40808;DHT22;26523;52.504;13.498;2022-11-20T09:07:19;1.10;99.90
40808;DHT22;26523;52.504;13.498;2022-11-20T09:09:45;1.10;99.90
40808;DHT22;26523;52.504;13.498;2022-11-20T09:12:10;1.10;99.90
40808;DHT22;26523;52.504;13.498;2022-11-20T09:14:36;1.20;99.90
40808;DHT22;26523;52.504;13.498;2022-11-20T09:17:02;1.20;99.90
40808;DHT22;26523;52.504;13.498;2022-11-20T09:19:27;1.20;99.90
40808;DHT22;26523;52.504;13.498;2022-11-20T09:21:53;1.30;99.90
40808;DHT22;26523;52.504;13.498;2022-11-20T09:24:19;1.20;99.90
40808;DHT22;26523;52.504;13.498;2022-11-20T09:26:46;1.20;99.90
40808;DHT22;26523;52.504;13.498;2022-11-20T09:29:12;1.20;99.90
40808;DHT22;26523;52.504;13.498;2022-11-20T09:31:38;1.20;99.90
40808;DHT22;26523;52.504;13.498;2022-11-20T09:34:04;1.30;99.90
40808;DHT22;26523;52.504;13.498;2022-11-20T09:36:29;1.20;99.90
40808;DHT22;26523;52.504;13.498;2022-11-20T09:38:55;1.20;99.90
40808;DHT22;26523;52.504;13.498;2022-11-20T09:41:58;1.30;99.90
40808;DHT22;26523;52.504;13.498;2022-11-20T09:44:34;1.40;99.90
40808;DHT22;26523;52.504;13.498;2022-11-20T09:52:38;1.40;99.90
40808;DHT22;26523;52.504;13.498;2022-11-20T09:55:10;1.30;99.90
40808;DHT22;26523;52.504;13.498;2022-11-20T09:57:38;1.30;99.90
40808;DHT22;26523;52.504;13.498;2022-11-20T10:00:06;1.40;99.90
40808;DHT22;26523;52.504;13.498;2022-11-20T10:10:43;1.60;99.90
40808;DHT22;26523;52.504;13.498;2022-11-20T10:18:54;1.70;99.90
40808;DHT22;26523;52.504;13.498;2022-11-20T10:26:43;1.70;99.90
40808;DHT22;26523;52.504;13.498;2022-11-20T10:29:13;1.80;99.90
40808;DHT22;26523;52.504;13.498;2022-11-20T10:31:44;1.90;99.90
40808;DHT22;26523;52.504;13.498;2022-11-20T10:37:23;2.00;99.90
40808;DHT22;26523;52.504;13.498;2022-11-20T10:42:44;2.00;99.90
40808;DHT22;26523;52.504;13.498;2022-11-20T10:47:54;1.70;99.90
40808;DHT22;26523;52.504;13.498;2022-11-20T10:50:22;1.60;99.90
40808;DHT22;26523;52.504;13.498;2022-11-20T10:55:53;1.70;99.90
40808;DHT22;26523;52.504;13.498;2022-11-20T10:58:45;1.70;99.90
40808;DHT22;26523;52.504;13.498;2022-11-20T11:01:17;1.80;99.90
40808;DHT22;26523;52.504;13.498;2022-11-20T11:03:44;1.90;99.90
40808;DHT22;26523;52.504;13.498;2022-11-20T11:08:38;2.00;99.90
40808;DHT22;26523;52.504;13.498;2022-11-20T11:11:30;2.00;99.90
40808;DHT22;26523;52.504;13.498;2022-11-20T11:14:11;2.00;99.90
40808;DHT22;26523;52.504;13.498;2022-11-20T11:16:52;2.00;99.90
40808;DHT22;26523;52.504;13.498;2022-11-20T11:19:18;2.20;99.90
40808;DHT22;26523;52.504;13.498;2022-11-20T11:21:47;2.30;99.90
40808;DHT22;26523;52.504;13.498;2022-11-20T11:24:28;2.40;99.90
40808;DHT22;26523;52.504;13.498;2022-11-20T11:26:59;2.60;99.90
40808;DHT22;26523;52.504;13.498;2022-11-20T11:29:29;2.70;99.90
40808;DHT22;26523;52.504;13.498;2022-11-20T11:32:06;2.70;99.90
40808;DHT22;26523;52.504;13.498;2022-11-20T11:34:32;2.60;99.90
40808;DHT22;26523;52.504;13.498;2022-11-20T11:36:58;2.60;99.90
40808;DHT22;26523;52.504;13.498;2022-11-20T11:39:26;2.60;99.90
40808;DHT22;26523;52.504;13.498;2022-11-20T11:41:52;2.70;99.90
40808;DHT22;26523;52.504;13.498;2022-11-20T11:44:32;2.80;99.90
40808;DHT22;26523;52.504;13.498;2022-11-20T11:47:24;2.70;99.90
40808;DHT22;26523;52.504;13.498;2022-11-20T11:52:54;2.80;99.90
40808;DHT22;26523;52.504;13.498;2022-11-20T11:56:26;2.70;99.90
40808;DHT22;26523;52.504;13.498;2022-11-20T11:58:51;2.70;99.90
40808;DHT22;26523;52.504;13.498;2022-11-20T12:01:37;2.50;99.90
40808;DHT22;26523;52.504;13.498;2022-11-20T12:04:45;2.50;99.90
40808;DHT22;26523;52.504;13.498;2022-11-20T12:10:47;2.30;99.90
40808;DHT22;26523;52.504;13.498;2022-11-20T12:13:34;2.20;99.90
40808;DHT22;26523;52.504;13.498;2022-11-20T12:16:03;2.00;99.90
40808;DHT22;26523;52.504;13.498;2022-11-20T12:18:30;1.90;99.90
40808;DHT22;26523;52.504;13.498;2022-11-20T12:21:04;1.80;99.90
40808;DHT22;26523;52.504;13.498;2022-11-20T12:26:10;1.80;99.90
40808;DHT22;26523;52.504;13.498;2022-11-20T12:28:51;1.80;99.90
40808;DHT22;26523;52.504;13.498;2022-11-20T12:34:27;1.70;99.90
40808;DHT22;26523;52.504;13.498;2022-11-20T12:39:49;1.80;99.90
40808;DHT22;26523;52.504;13.498;2022-11-20T12:42:39;1.80;99.90
40808;DHT22;26523;52.504;13.498;2022-11-20T12:48:26;1.80;99.90
40808;DHT22;26523;52.504;13.498;2022-11-20T12:51:29;1.80;99.90
40808;DHT22;26523;52.504;13.498;2022-11-20T12:56:53;1.60;99.90
40808;DHT22;26523;52.504;13.498;2022-11-20T13:07:39;1.30;99.90
40808;DHT22;26523;52.504;13.498;2022-11-20T13:10:16;1.30;99.90
40808;DHT22;26523;52.504;13.498;2022-11-20T13:12:51;1.10;99.90
40808;DHT22;26523;52.504;13.498;2022-11-20T13:15:44;1.20;99.90
40808;DHT22;26523;52.504;13.498;2022-11-20T13:18:14;1.10;99.90
40808;DHT22;26523;52.504;13.498;2022-11-20T13:20:44;1.00;99.90
40808;DHT22;26523;52.504;13.498;2022-11-20T13:23:10;1.00;99.90
40808;DHT22;26523;52.504;13.498;2022-11-20T13:25:37;1.00;99.90
40808;DHT22;26523;52.504;13.498;2022-11-20T13:30:49;1.20;99.90
40808;DHT22;26523;52.504;13.498;2022-11-20T13:33:35;1.40;99.90
40808;DHT22;26523;52.504;13.498;2022-11-20T13:36:21;1.50;99.90
40808;DHT22;26523;52.504;13.498;2022-11-20T13:38:49;1.50;99.90
40808;DHT22;26523;52.504;13.498;2022-11-20T13:41:35;1.50;99.90
40808;DHT22;26523;52.504;13.498;2022-11-20T13:46:42;1.50;99.90
40808;DHT22;26523;52.504;13.498;2022-11-20T13:49:10;1.50;99.90
40808;DHT22;26523;52.504;13.498;2022-11-20T13:51:47;1.40;99.90
40808;DHT22;26523;52.504;13.498;2022-11-20T14:02:14;1.70;99.90
40808;DHT22;26523;52.504;13.498;2022-11-20T14:04:49;1.70;99.90
40808;DHT22;26523;52.504;13.498;2022-11-20T14:07:18;1.70;99.90
40808;DHT22;26523;52.504;13.498;2022-11-20T14:09:55;1.70;99.90
40808;DHT22;26523;52.504;13.498;2022-11-20T14:12:33;1.80;99.90
40808;DHT22;26523;52.504;13.498;2022-11-20T14:14:59;1.70;99.90
40808;DHT22;26523;52.504;13.498;2022-11-20T14:20:11;1.60;99.90
40808;DHT22;26523;52.504;13.498;2022-11-20T14:22:38;1.60;99.90
40808;DHT22;26523;52.504;13.498;2022-11-20T14:25:21;1.60;99.90
40808;DHT22;26523;52.504;13.498;2022-11-20T14:27:52;1.70;99.90
40808;DHT22;26523;52.504;13.498;2022-11-20T14:30:24;1.60;99.90
40808;DHT22;26523;52.504;13.498;2022-11-20T14:32:52;1.60;99.90
40808;DHT22;26523;52.504;13.498;2022-11-20T14:37:47;1.60;99.90
40808;DHT22;26523;52.504;13.498;2022-11-20T14:40:24;1.50;99.90
40808;DHT22;26523;52.504;13.498;2022-11-20T14:42:50;1.50;99.90
40808;DHT22;26523;52.504;13.498;2022-11-20T14:45:16;1.50;99.90
40808;DHT22;26523;52.504;13.498;2022-11-20T14:47:43;1.50;99.90
40808;DHT22;26523;52.504;13.498;2022-11-20T14:52:51;1.50;99.90
40808;DHT22;26523;52.504;13.498;2022-11-20T14:55:27;1.50;99.90
40808;DHT22;26523;52.504;13.498;2022-11-20T14:57:58;1.50;99.90
40808;DHT22;26523;52.504;13.498;2022-11-20T15:00:24;1.50;99.90
40808;DHT22;26523;52.504;13.498;2022-11-20T15:02:51;1.40;99.90
40808;DHT22;26523;52.504;13.498;2022-11-20T15:05:20;1.40;99.90
40808;DHT22;26523;52.504;13.498;2022-11-20T15:08:03;1.40;99.90
40808;DHT22;26523;52.504;13.498;2022-11-20T15:10:29;1.40;99.90
40808;DHT22;26523;52.504;13.498;2022-11-20T15:12:59;1.40;99.90
40808;DHT22;26523;52.504;13.498;2022-11-20T15:15:47;1.30;99.90
40808;DHT22;26523;52.504;13.498;2022-11-20T15:18:24;1.30;99.90
40808;DHT22;26523;52.504;13.498;2022-11-20T15:20:58;1.20;99.90
40808;DHT22;26523;52.504;13.498;2022-11-20T15:23:26;1.10;99.90
40808;DHT22;26523;52.504;13.498;2022-11-20T15:25:52;1.10;99.90
40808;DHT22;26523;52.504;13.498;2022-11-20T15:30:51;1.10;99.90
40808;DHT22;26523;52.504;13.498;2022-11-20T15:33:21;1.10;99.90
40808;DHT22;26523;52.504;13.498;2022-11-20T15:35:47;1.10;99.90
40808;DHT22;26523;52.504;13.498;2022-11-20T15:38:13;1.10;99.90
40808;DHT22;26523;52.504;13.498;2022-11-20T15:40:39;1.10;99.90
40808;DHT22;26523;52.504;13.498;2022-11-20T15:43:04;1.10;99.90
40808;DHT22;26523;52.504;13.498;2022-11-20T15:48:03;1.30;99.90
40808;DHT22;26523;52.504;13.498;2022-11-20T15:50:39;1.20;99.90
40808;DHT22;26523;52.504;13.498;2022-11-20T15:53:09;1.30;99.90
40808;DHT22;26523;52.504;13.498;2022-11-20T15:55:35;1.30;99.90
40808;DHT22;26523;52.504;13.498;2022-11-20T15:58:01;1.30;99.90
40808;DHT22;26523;52.504;13.498;2022-11-20T16:00:27;1.20;99.90
40808;DHT22;26523;52.504;13.498;2022-11-20T16:02:52;1.30;99.90
40808;DHT22;26523;52.504;13.498;2022-11-20T16:05:18;1.20;99.90
40808;DHT22;26523;52.504;13.498;2022-11-20T16:07:44;1.20;99.90
40808;DHT22;26523;52.504;13.498;2022-11-20T16:10:09;1.30;99.90
40808;DHT22;26523;52.504;13.498;2022-11-20T16:12:35;1.30;99.90
40808;DHT22;26523;52.504;13.498;2022-11-20T16:15:19;1.20;99.90
40808;DHT22;26523;52.504;13.498;2022-11-20T16:18:03;1.10;99.90
40808;DHT22;26523;52.504;13.498;2022-11-20T16:20:29;0.90;99.90
40808;DHT22;26523;52.504;13.498;2022-11-20T16:22:55;0.70;99.90
40808;DHT22;26523;52.504;13.498;2022-11-20T16:25:21;0.60;99.90
40808;DHT22;26523;52.504;13.498;2022-11-20T16:27:46;0.50;99.90
40808;DHT22;26523;52.504;13.498;2022-11-20T16:30:12;0.40;99.90
40808;DHT22;26523;52.504;13.498;2022-11-20T16:32:38;0.40;99.90
40808;DHT22;26523;52.504;13.498;2022-11-20T16:35:04;0.30;99.90
40808;DHT22;26523;52.504;13.498;2022-11-20T16:37:30;0.10;99.90
40808;DHT22;26523;52.504;13.498;2022-11-20T16:39:55;0.10;99.90
40808;DHT22;26523;52.504;13.498;2022-11-20T16:42:21;0.10;99.90
40808;DHT22;26523;52.504;13.498;2022-11-20T16:44:47;0.00;99.90
40808;DHT22;26523;52.504;13.498;2022-11-20T16:47:13;-0.10;99.90
40808;DHT22;26523;52.504;13.498;2022-11-20T16:49:38;-0.10;99.90
40808;DHT22;26523;52.504;13.498;2022-11-20T16:52:04;-0.10;99.90
40808;DHT22;26523;52.504;13.498;2022-11-20T16:54:30;-0.10;99.90
40808;DHT22;26523;52.504;13.498;2022-11-20T16:56:55;-0.10;99.90
40808;DHT22;26523;52.504;13.498;2022-11-20T16:59:21;-0.20;99.90
40808;DHT22;26523;52.504;13.498;2022-11-20T17:01:46;-0.30;99.90
40808;DHT22;26523;52.504;13.498;2022-11-20T17:04:12;-0.40;99.90
40808;DHT22;26523;52.504;13.498;2022-11-20T17:06:41;-0.40;99.90
40808;DHT22;26523;52.504;13.498;2022-11-20T17:09:09;-0.30;99.90
40808;DHT22;26523;52.504;13.498;2022-11-20T17:11:35;-0.20;99.90
40808;DHT22;26523;52.504;13.498;2022-11-20T17:14:01;-0.20;99.90
40808;DHT22;26523;52.504;13.498;2022-11-20T17:16:28;-0.20;99.90
40808;DHT22;26523;52.504;13.498;2022-11-20T17:18:56;-0.10;99.90
40808;DHT22;26523;52.504;13.498;2022-11-20T17:21:22;-0.10;99.90
40808;DHT22;26523;52.504;13.498;2022-11-20T17:23:48;0.00;99.90
40808;DHT22;26523;52.504;13.498;2022-11-20T17:26:19;0.00;99.90